Time,TemperatureF,DewpointF,PressureIn,WindDirection,WindDirectionDegrees,WindSpeedMPH,WindSpeedGustMPH,Humidity,HourlyPrecipIn,Conditions,Clouds,dailyrainin,SoftwareType,DateUTC
2013-04-11 00:00:00,73.8,70.4,29.98,SE,124,4.0,4.0,89,0.00,,,0.00,Wunderground v.1.15,2013-04-11 04:00:00,
2013-04-11 00:05:00,73.8,70.4,29.98,SE,134,5.0,7.0,89,0.00,,,0.00,Wunderground v.1.15,2013-04-11 04:05:00,
2013-04-11 00:10:00,73.7,70.3,29.98,SE,140,5.0,5.0,89,0.00,,,0.00,Wunderground v.1.15,2013-04-11 04:10:00,
2013-04-11 00:15:00,73.6,70.2,29.98,SE,139,5.0,5.0,89,0.00,,,0.00,Wunderground v.1.15,2013-04-11 04:15:00,
2013-04-11 00:20:00,73.5,70.1,29.98,SE,136,5.0,6.0,89,0.00,,,0.00,Wunderground v.1.15,2013-04-11 04:20:00,
2013-04-11 00:25:00,73.4,70.3,29.97,SE,126,5.0,6.0,90,0.00,,,0.00,Wunderground v.1.15,2013-04-11 04:25:00,
2013-04-11 00:30:00,73.3,70.2,29.97,SE,126,5.0,5.0,90,0.00,,,0.00,Wunderground v.1.15,2013-04-11 04:30:00,
2013-04-11 00:40:00,73.2,70.1,29.97,SE,137,6.0,7.0,90,0.00,,,0.00,Wunderground v.1.15,2013-04-11 04:40:00,
2013-04-11 00:45:00,73.3,70.2,29.97,SE,134,6.0,7.0,90,0.00,,,0.00,Wunderground v.1.15,2013-04-11 04:45:00,
2013-04-11 00:50:00,73.2,70.1,29.97,SE,133,6.0,9.0,90,0.00,,,0.00,Wunderground v.1.15,2013-04-11 04:50:00,
2013-04-11 00:55:00,73.2,70.1,29.96,SE,137,6.0,9.0,90,0.00,,,0.00,Wunderground v.1.15,2013-04-11 04:55:00,
2013-04-11 01:00:00,73.1,70.0,29.96,SE,142,6.0,6.0,90,0.00,,,0.00,Wunderground v.1.15,2013-04-11 05:00:00,
2013-04-11 01:05:00,73.1,70.0,29.96,SE,140,5.0,6.0,90,0.00,,,0.00,Wunderground v.1.15,2013-04-11 05:05:00,
2013-04-11 01:15:00,73.0,69.9,29.96,SE,138,5.0,5.0,90,0.00,,,0.00,Wunderground v.1.15,2013-04-11 05:15:00,
2013-04-11 01:20:00,73.0,70.2,29.96,SE,134,4.0,4.0,91,0.00,,,0.00,Wunderground v.1.15,2013-04-11 05:20:00,
2013-04-11 01:30:00,73.1,70.3,29.95,SE,136,5.0,5.0,91,0.00,,,0.00,Wunderground v.1.15,2013-04-11 05:30:00,
2013-04-11 01:35:00,73.0,70.2,29.95,SE,136,4.0,5.0,91,0.00,,,0.00,Wunderground v.1.15,2013-04-11 05:35:00,
2013-04-11 01:40:00,73.0,70.2,29.95,SE,134,3.0,3.0,91,0.00,,,0.00,Wunderground v.1.15,2013-04-11 05:40:00,
2013-04-11 01:50:00,73.0,70.2,29.95,SE,133,4.0,4.0,91,0.00,,,0.00,Wunderground v.1.15,2013-04-11 05:50:00,
2013-04-11 02:00:00,72.9,70.1,29.95,SE,134,4.0,5.0,91,0.00,,,0.00,Wunderground v.1.15,2013-04-11 06:00:00,
2013-04-11 02:05:00,72.9,70.4,29.94,SE,134,4.0,5.0,92,0.00,,,0.00,Wunderground v.1.15,2013-04-11 06:05:00,
2013-04-11 02:15:00,72.8,70.3,29.93,SE,136,4.0,5.0,92,0.00,,,0.00,Wunderground v.1.15,2013-04-11 06:15:00,
2013-04-11 02:20:00,72.8,70.3,29.93,SE,136,5.0,5.0,92,0.00,,,0.00,Wunderground v.1.15,2013-04-11 06:20:00,
2013-04-11 02:25:00,72.7,70.2,29.93,SE,136,5.0,5.0,92,0.00,,,0.00,Wunderground v.1.15,2013-04-11 06:25:00,
2013-04-11 02:30:00,72.7,70.2,29.93,SE,136,5.0,6.0,92,0.00,,,0.00,Wunderground v.1.15,2013-04-11 06:30:00,
2013-04-11 02:35:00,72.7,70.2,29.93,SE,134,5.0,6.0,92,0.00,,,0.00,Wunderground v.1.15,2013-04-11 06:35:00,
2013-04-11 02:45:00,72.7,70.2,29.93,SE,135,4.0,4.0,92,0.00,,,0.00,Wunderground v.1.15,2013-04-11 06:45:00,
2013-04-11 02:55:00,72.6,70.1,29.92,SE,134,4.0,4.0,92,0.00,,,0.00,Wunderground v.1.15,2013-04-11 06:55:00,
2013-04-11 03:00:00,72.6,70.5,29.92,SE,135,4.0,4.0,93,0.00,,,0.00,Wunderground v.1.15,2013-04-11 07:00:00,
2013-04-11 03:06:00,72.5,70.4,29.92,SE,134,3.0,4.0,93,0.00,,,0.00,Wunderground v.1.15,2013-04-11 07:06:00,
2013-04-11 03:15:00,72.5,70.4,29.92,SE,135,4.0,4.0,93,0.00,,,0.00,Wunderground v.1.15,2013-04-11 07:15:00,
2013-04-11 03:20:00,72.4,70.3,29.92,SE,134,3.0,3.0,93,0.00,,,0.00,Wunderground v.1.15,2013-04-11 07:20:00,
2013-04-11 03:25:00,72.4,70.3,29.92,SE,135,3.0,3.0,93,0.00,,,0.00,Wunderground v.1.15,2013-04-11 07:25:00,
2013-04-11 03:30:00,72.4,70.3,29.91,SE,135,4.0,4.0,93,0.00,,,0.00,Wunderground v.1.15,2013-04-11 07:30:00,
2013-04-11 03:35:00,72.3,70.2,29.92,SE,134,3.0,5.0,93,0.00,,,0.00,Wunderground v.1.15,2013-04-11 07:35:00,
2013-04-11 03:40:00,72.3,70.2,29.91,SE,134,3.0,5.0,93,0.00,,,0.00,Wunderground v.1.15,2013-04-11 07:40:00,
2013-04-11 03:45:00,72.2,70.1,29.91,SE,134,3.0,5.0,93,0.00,,,0.00,Wunderground v.1.15,2013-04-11 07:45:00,
2013-04-11 03:50:00,72.1,70.0,29.91,SE,135,3.0,3.0,93,0.00,,,0.00,Wunderground v.1.15,2013-04-11 07:50:00,
2013-04-11 03:55:00,72.0,69.9,29.91,SE,134,2.0,4.0,93,0.00,,,0.00,Wunderground v.1.15,2013-04-11 07:55:00,
2013-04-11 04:00:00,72.0,69.9,29.91,SE,135,2.0,3.0,93,0.00,,,0.00,Wunderground v.1.15,2013-04-11 08:00:00,
2013-04-11 04:05:00,72.1,70.3,29.91,SE,135,3.0,3.0,94,0.00,,,0.00,Wunderground v.1.15,2013-04-11 08:05:00,
2013-04-11 04:10:00,72.1,70.3,29.91,SE,135,2.0,3.0,94,0.00,,,0.00,Wunderground v.1.15,2013-04-11 08:10:00,
2013-04-11 04:15:00,72.1,70.3,29.91,SE,134,2.0,3.0,94,0.00,,,0.00,Wunderground v.1.15,2013-04-11 08:15:00,
2013-04-11 04:20:00,72.1,70.3,29.91,SE,135,3.0,3.0,94,0.00,,,0.00,Wunderground v.1.15,2013-04-11 08:20:00,
2013-04-11 04:30:00,72.2,70.4,29.92,SE,134,4.0,4.0,94,0.00,,,0.00,Wunderground v.1.15,2013-04-11 08:30:00,
2013-04-11 04:40:00,72.3,70.5,29.92,SE,135,2.0,2.0,94,0.00,,,0.00,Wunderground v.1.15,2013-04-11 08:40:00,
2013-04-11 04:45:00,72.2,70.4,29.92,SE,135,1.0,2.0,94,0.00,,,0.00,Wunderground v.1.15,2013-04-11 08:45:00,
2013-04-11 04:50:00,72.2,70.4,29.92,SE,135,0.0,0.0,94,0.00,,,0.00,Wunderground v.1.15,2013-04-11 08:50:00,
2013-04-11 04:55:00,72.1,70.3,29.92,SE,134,1.0,2.0,94,0.00,,,0.00,Wunderground v.1.15,2013-04-11 08:55:00,
2013-04-11 05:00:00,72.1,70.3,29.92,SE,134,2.0,3.0,94,0.00,,,0.00,Wunderground v.1.15,2013-04-11 09:00:00,
2013-04-11 05:05:00,72.1,70.3,29.92,SE,130,3.0,5.0,94,0.00,,,0.00,Wunderground v.1.15,2013-04-11 09:05:00,
2013-04-11 05:10:00,72.1,70.3,29.92,SE,130,3.0,3.0,94,0.00,,,0.00,Wunderground v.1.15,2013-04-11 09:10:00,
2013-04-11 05:15:00,72.2,70.4,29.92,SE,130,4.0,4.0,94,0.00,,,0.00,Wunderground v.1.15,2013-04-11 09:15:00,
2013-04-11 05:20:00,72.2,70.4,29.92,SE,132,4.0,4.0,94,0.00,,,0.00,Wunderground v.1.15,2013-04-11 09:20:00,
2013-04-11 05:25:00,72.1,70.3,29.92,SE,132,4.0,5.0,94,0.00,,,0.00,Wunderground v.1.15,2013-04-11 09:25:00,
2013-04-11 05:30:00,72.0,70.2,29.92,SE,132,4.0,4.0,94,0.00,,,0.00,Wunderground v.1.15,2013-04-11 09:30:00,
2013-04-11 05:35:00,71.8,70.0,29.92,SE,132,3.0,4.0,94,0.00,,,0.00,Wunderground v.1.15,2013-04-11 09:35:00,
2013-04-11 05:40:00,71.7,69.9,29.92,SE,132,3.0,3.0,94,0.00,,,0.00,Wunderground v.1.15,2013-04-11 09:40:00,
2013-04-11 05:45:00,71.6,69.8,29.92,SE,132,2.0,3.0,94,0.00,,,0.00,Wunderground v.1.15,2013-04-11 09:45:00,
2013-04-11 05:50:00,71.4,69.6,29.92,SE,132,1.0,1.0,94,0.00,,,0.00,Wunderground v.1.15,2013-04-11 09:50:00,
2013-04-11 06:00:00,71.3,69.5,29.92,SE,132,0.0,0.0,94,0.00,,,0.00,Wunderground v.1.15,2013-04-11 10:00:00,
2013-04-11 06:05:00,71.3,69.5,29.92,SE,132,0.0,0.0,94,0.00,,,0.00,Wunderground v.1.15,2013-04-11 10:05:00,
2013-04-11 06:10:00,71.3,69.5,29.92,SE,132,0.0,0.0,94,0.00,,,0.00,Wunderground v.1.15,2013-04-11 10:10:00,
2013-04-11 06:15:00,71.4,69.6,29.92,SE,132,0.0,0.0,94,0.00,,,0.00,Wunderground v.1.15,2013-04-11 10:15:00,
2013-04-11 06:20:00,71.4,69.6,29.92,SE,132,0.0,0.0,94,0.00,,,0.00,Wunderground v.1.15,2013-04-11 10:20:00,
2013-04-11 06:25:00,71.4,69.6,29.92,SE,132,0.0,0.0,94,0.00,,,0.00,Wunderground v.1.15,2013-04-11 10:25:00,
2013-04-11 06:30:00,71.4,69.6,29.92,SE,132,0.0,0.0,94,0.00,,,0.00,Wunderground v.1.15,2013-04-11 10:30:00,
2013-04-11 08:15:00,72.1,70.6,29.95,SE,129,4.0,4.0,95,0.00,,,0.00,Wunderground v.1.15,2013-04-11 12:15:00,
2013-04-11 08:20:00,72.3,70.8,29.95,SE,130,4.0,5.0,95,0.00,,,0.00,Wunderground v.1.15,2013-04-11 12:20:00,
2013-04-11 08:25:00,72.5,70.7,29.95,SE,128,5.0,8.0,94,0.00,,,0.00,Wunderground v.1.15,2013-04-11 12:25:00,
2013-04-11 08:30:00,72.6,70.8,29.95,ESE,123,6.0,6.0,94,0.00,,,0.00,Wunderground v.1.15,2013-04-11 12:30:00,
2013-04-11 08:35:00,72.9,71.1,29.95,SE,133,6.0,6.0,94,0.00,,,0.00,Wunderground v.1.15,2013-04-11 12:35:00,
2013-04-11 08:40:00,73.1,71.3,29.95,SE,130,7.0,10.0,94,0.00,,,0.00,Wunderground v.1.15,2013-04-11 12:40:00,
2013-04-11 08:45:00,73.3,71.2,29.95,SE,134,7.0,10.0,93,0.00,,,0.00,Wunderground v.1.15,2013-04-11 12:45:00,
2013-04-11 08:50:00,73.6,71.4,29.95,SE,144,7.0,7.0,93,0.00,,,0.00,Wunderground v.1.15,2013-04-11 12:50:00,
2013-04-11 08:55:00,73.8,71.6,29.95,SE,135,7.0,9.0,93,0.00,,,0.00,Wunderground v.1.15,2013-04-11 12:55:00,
2013-04-11 09:00:00,74.2,72.0,29.95,SE,136,7.0,7.0,93,0.00,,,0.00,Wunderground v.1.15,2013-04-11 13:00:00,
2013-04-11 09:05:00,74.5,72.0,29.95,SE,137,8.0,12.0,92,0.00,,,0.00,Wunderground v.1.15,2013-04-11 13:05:00,
2013-04-11 09:10:00,74.6,72.1,29.95,SSE,153,9.0,10.0,92,0.00,,,0.00,Wunderground v.1.15,2013-04-11 13:10:00,
2013-04-11 09:15:00,75.0,72.5,29.95,SSE,155,9.0,10.0,92,0.00,,,0.00,Wunderground v.1.15,2013-04-11 13:15:00,
2013-04-11 09:20:00,75.5,72.7,29.95,ESE,119,8.0,8.0,91,0.00,,,0.00,Wunderground v.1.15,2013-04-11 13:20:00,
2013-04-11 09:25:00,75.7,72.9,29.95,SE,140,8.0,11.0,91,0.00,,,0.00,Wunderground v.1.15,2013-04-11 13:25:00,
2013-04-11 09:30:00,75.9,72.8,29.95,SE,145,9.0,9.0,90,0.00,,,0.00,Wunderground v.1.15,2013-04-11 13:30:00,
2013-04-11 09:35:00,75.7,72.2,29.95,SE,126,10.0,13.0,89,0.00,,,0.00,Wunderground v.1.15,2013-04-11 13:35:00,
2013-04-11 09:40:00,76.1,72.6,29.96,ESE,119,9.0,10.0,89,0.00,,,0.00,Wunderground v.1.15,2013-04-11 13:40:00,
2013-04-11 09:45:00,76.5,73.0,29.96,SE,131,9.0,10.0,89,0.00,,,0.00,Wunderground v.1.15,2013-04-11 13:45:00,
2013-04-11 09:50:00,76.5,72.7,29.96,ESE,115,9.0,10.0,88,0.00,,,0.00,Wunderground v.1.15,2013-04-11 13:50:00,
2013-04-11 10:00:00,76.6,72.8,29.96,SSE,155,10.0,11.0,88,0.00,,,0.00,Wunderground v.1.15,2013-04-11 14:00:00,
2013-04-11 10:05:00,76.8,72.6,29.96,ESE,104,9.0,11.0,87,0.00,,,0.00,Wunderground v.1.15,2013-04-11 14:05:00,
2013-04-11 10:10:00,77.2,73.0,29.96,SE,144,8.0,10.0,87,0.00,,,0.00,Wunderground v.1.15,2013-04-11 14:10:00,
2013-04-11 10:15:00,77.4,72.9,29.97,SE,132,9.0,11.0,86,0.00,,,0.00,Wunderground v.1.15,2013-04-11 14:15:00,
2013-04-11 10:20:00,77.1,72.6,29.96,SE,140,10.0,10.0,86,0.00,,,0.00,Wunderground v.1.15,2013-04-11 14:20:00,
2013-04-11 10:25:00,77.1,72.6,29.97,SE,130,10.0,10.0,86,0.00,,,0.00,Wunderground v.1.15,2013-04-11 14:25:00,
2013-04-11 10:30:00,77.5,73.0,29.97,SSE,151,9.0,9.0,86,0.00,,,0.00,Wunderground v.1.15,2013-04-11 14:30:00,
2013-04-11 10:35:00,78.1,73.6,29.97,SSE,157,8.0,11.0,86,0.00,,,0.00,Wunderground v.1.15,2013-04-11 14:35:00,
2013-04-11 10:40:00,77.9,72.7,29.96,SSE,149,10.0,13.0,84,0.00,,,0.00,Wunderground v.1.15,2013-04-11 14:40:00,
2013-04-11 10:45:00,78.1,72.9,29.96,SSE,163,11.0,13.0,84,0.00,,,0.00,Wunderground v.1.15,2013-04-11 14:45:00,
2013-04-11 10:50:00,79.1,74.2,29.96,SE,134,10.0,10.0,85,0.00,,,0.00,Wunderground v.1.15,2013-04-11 14:50:00,
2013-04-11 11:00:00,78.9,73.3,29.96,SSE,165,9.0,9.0,83,0.00,,,0.00,Wunderground v.1.15,2013-04-11 15:00:00,
2013-04-11 11:06:00,79.7,74.1,29.96,South,169,9.0,14.0,83,0.00,,,0.00,Wunderground v.1.15,2013-04-11 15:06:00,
2013-04-11 11:10:00,79.6,73.3,29.95,SSE,163,10.0,13.0,81,0.00,,,0.00,Wunderground v.1.15,2013-04-11 15:10:00,
2013-04-11 11:15:00,79.8,73.4,29.95,SSE,162,12.0,15.0,81,0.00,,,0.00,Wunderground v.1.15,2013-04-11 15:15:00,
2013-04-11 11:20:00,80.2,73.5,29.95,SSE,153,12.0,12.0,80,0.00,,,0.00,Wunderground v.1.15,2013-04-11 15:20:00,
2013-04-11 11:30:00,81.2,74.1,29.95,SE,135,11.0,14.0,79,0.00,,,0.00,Wunderground v.1.15,2013-04-11 15:30:00,
2013-04-11 11:35:00,81.6,74.1,29.95,SE,131,11.0,14.0,78,0.00,,,0.00,Wunderground v.1.15,2013-04-11 15:35:00,
2013-04-11 11:40:00,81.9,74.0,29.94,SE,136,10.0,10.0,77,0.00,,,0.00,Wunderground v.1.15,2013-04-11 15:40:00,
2013-04-11 11:45:00,82.4,74.1,29.94,SE,131,10.0,10.0,76,0.00,,,0.00,Wunderground v.1.15,2013-04-11 15:45:00,
2013-04-11 11:50:00,82.7,74.0,29.94,SE,142,12.0,14.0,75,0.00,,,0.00,Wunderground v.1.15,2013-04-11 15:50:00,
2013-04-11 12:00:00,83.0,73.4,29.94,SSE,166,11.0,15.0,73,0.00,,,0.00,Wunderground v.1.15,2013-04-11 16:00:00,
2013-04-11 12:05:00,83.3,73.7,29.94,SE,144,10.0,15.0,73,0.00,,,0.00,Wunderground v.1.15,2013-04-11 16:05:00,
2013-04-11 12:15:00,83.8,73.4,29.93,SSE,159,11.0,14.0,71,0.00,,,0.00,Wunderground v.1.15,2013-04-11 16:15:00,
2013-04-11 12:20:00,83.6,72.8,29.93,SSE,159,12.0,12.0,70,0.00,,,0.00,Wunderground v.1.15,2013-04-11 16:20:00,
2013-04-11 12:25:00,83.6,73.6,29.93,SE,141,11.0,15.0,72,0.00,,,0.00,Wunderground v.1.15,2013-04-11 16:25:00,
2013-04-11 12:30:00,83.7,72.9,29.93,SSE,159,11.0,11.0,70,0.00,,,0.00,Wunderground v.1.15,2013-04-11 16:30:00,
2013-04-11 12:40:00,84.8,73.5,29.92,SSE,148,11.0,11.0,69,0.00,,,0.00,Wunderground v.1.15,2013-04-11 16:40:00,
2013-04-11 12:50:00,84.9,73.2,29.92,SE,132,11.0,11.0,68,0.00,,,0.00,Wunderground v.1.15,2013-04-11 16:50:00,
2013-04-11 12:55:00,84.7,72.5,29.91,SSE,161,12.0,14.0,67,0.00,,,0.00,Wunderground v.1.15,2013-04-11 16:55:00,
2013-04-11 13:00:00,84.6,72.4,29.91,SE,144,12.0,12.0,67,0.00,,,0.00,Wunderground v.1.15,2013-04-11 17:00:00,
2013-04-11 13:05:00,84.8,72.6,29.91,SE,138,12.0,12.0,67,0.00,,,0.00,Wunderground v.1.15,2013-04-11 17:05:00,
2013-04-11 13:10:00,85.0,72.8,29.91,SSE,153,11.0,11.0,67,0.00,,,0.00,Wunderground v.1.15,2013-04-11 17:10:00,
2013-04-11 13:15:00,85.6,73.4,29.91,South,177,11.0,11.0,67,0.00,,,0.00,Wunderground v.1.15,2013-04-11 17:15:00,
2013-04-11 13:20:00,86.2,73.0,29.91,SSE,149,11.0,11.0,65,0.00,,,0.00,Wunderground v.1.15,2013-04-11 17:20:00,
2013-04-11 13:25:00,86.6,73.0,29.90,South,177,11.0,11.0,64,0.00,,,0.00,Wunderground v.1.15,2013-04-11 17:25:00,
2013-04-11 13:30:00,86.5,72.4,29.90,South,188,11.0,15.0,63,0.00,,,0.00,Wunderground v.1.15,2013-04-11 17:30:00,
2013-04-11 13:35:00,86.1,72.5,29.90,SE,140,11.0,15.0,64,0.00,,,0.00,Wunderground v.1.15,2013-04-11 17:35:00,
2013-04-11 13:40:00,86.3,72.2,29.90,SE,140,12.0,12.0,63,0.00,,,0.00,Wunderground v.1.15,2013-04-11 17:40:00,
2013-04-11 13:50:00,86.5,72.4,29.89,SSE,158,10.0,13.0,63,0.00,,,0.00,Wunderground v.1.15,2013-04-11 17:50:00,
2013-04-11 14:00:00,86.2,71.6,29.89,SSE,154,11.0,11.0,62,0.00,,,0.00,Wunderground v.1.15,2013-04-11 18:00:00,
2013-04-11 14:05:00,85.9,71.8,29.89,SSE,161,10.0,11.0,63,0.00,,,0.00,Wunderground v.1.15,2013-04-11 18:05:00,
2013-04-11 14:10:00,86.0,71.9,29.89,South,179,10.0,10.0,63,0.00,,,0.00,Wunderground v.1.15,2013-04-11 18:10:00,
2013-04-11 14:15:00,86.3,71.7,29.89,SSE,163,10.0,12.0,62,0.00,,,0.00,Wunderground v.1.15,2013-04-11 18:15:00,
2013-04-11 14:20:00,86.1,71.1,29.89,SSE,167,9.0,13.0,61,0.00,,,0.00,Wunderground v.1.15,2013-04-11 18:20:00,
2013-04-11 14:30:00,87.8,73.2,29.88,SSE,159,11.0,11.0,62,0.00,,,0.00,Wunderground v.1.15,2013-04-11 18:30:00,
2013-04-11 14:35:00,88.3,73.1,29.88,SSE,156,11.0,12.0,61,0.00,,,0.00,Wunderground v.1.15,2013-04-11 18:35:00,
2013-04-11 14:40:00,88.6,73.4,29.88,South,179,10.0,11.0,61,0.00,,,0.00,Wunderground v.1.15,2013-04-11 18:40:00,
2013-04-11 14:45:00,88.9,73.2,29.87,SSE,150,10.0,13.0,60,0.00,,,0.00,Wunderground v.1.15,2013-04-11 18:45:00,
2013-04-11 14:50:00,89.0,72.8,29.87,SSE,160,10.0,11.0,59,0.00,,,0.00,Wunderground v.1.15,2013-04-11 18:50:00,
2013-04-11 15:00:00,88.9,72.7,29.86,SSE,160,10.0,13.0,59,0.00,,,0.00,Wunderground v.1.15,2013-04-11 19:00:00,
2013-04-11 15:05:00,88.7,71.5,29.86,SSE,165,11.0,13.0,57,0.00,,,0.00,Wunderground v.1.15,2013-04-11 19:05:00,
2013-04-11 15:15:00,88.6,71.9,29.86,SSE,150,9.0,13.0,58,0.00,,,0.00,Wunderground v.1.15,2013-04-11 19:15:00,
2013-04-11 15:20:00,88.8,72.1,29.85,SSE,151,10.0,11.0,58,0.00,,,0.00,Wunderground v.1.15,2013-04-11 19:20:00,
2013-04-11 15:25:00,88.2,72.1,29.85,SSE,159,10.0,11.0,59,0.00,,,0.00,Wunderground v.1.15,2013-04-11 19:25:00,
2013-04-11 15:30:00,87.7,71.1,29.85,SSE,156,10.0,10.0,58,0.00,,,0.00,Wunderground v.1.15,2013-04-11 19:30:00,
2013-04-11 15:35:00,88.3,72.2,29.85,South,178,8.0,10.0,59,0.00,,,0.00,Wunderground v.1.15,2013-04-11 19:35:00,
2013-04-11 15:40:00,88.2,71.6,29.85,SSW,201,8.0,8.0,58,0.00,,,0.00,Wunderground v.1.15,2013-04-11 19:40:00,
2013-04-11 15:45:00,87.5,70.9,29.84,South,169,9.0,9.0,58,0.00,,,0.00,Wunderground v.1.15,2013-04-11 19:45:00,
2013-04-11 15:50:00,86.9,70.8,29.84,SSE,161,8.0,10.0,59,0.00,,,0.00,Wunderground v.1.15,2013-04-11 19:50:00,
2013-04-11 15:55:00,86.4,70.9,29.84,South,174,8.0,10.0,60,0.00,,,0.00,Wunderground v.1.15,2013-04-11 19:55:00,
2013-04-11 16:00:00,86.3,70.8,29.84,South,176,8.0,8.0,60,0.00,,,0.00,Wunderground v.1.15,2013-04-11 20:00:00,
2013-04-11 16:05:00,87.0,71.9,29.84,SSE,149,7.0,8.0,61,0.00,,,0.00,Wunderground v.1.15,2013-04-11 20:05:00,
2013-04-11 16:10:00,87.7,72.1,29.83,SSE,149,8.0,8.0,60,0.00,,,0.00,Wunderground v.1.15,2013-04-11 20:10:00,
2013-04-11 16:15:00,87.8,71.7,29.83,SSE,159,9.0,10.0,59,0.00,,,0.00,Wunderground v.1.15,2013-04-11 20:15:00,
2013-04-11 16:20:00,87.5,71.4,29.83,SSE,159,11.0,11.0,59,0.00,,,0.00,Wunderground v.1.15,2013-04-11 20:20:00,
2013-04-11 16:30:00,87.3,71.2,29.82,SSE,149,9.0,9.0,59,0.00,,,0.00,Wunderground v.1.15,2013-04-11 20:30:00,
2013-04-11 16:35:00,87.7,71.6,29.82,South,186,9.0,9.0,59,0.00,,,0.00,Wunderground v.1.15,2013-04-11 20:35:00,
2013-04-11 16:40:00,88.3,71.1,29.82,SSE,168,9.0,10.0,57,0.00,,,0.00,Wunderground v.1.15,2013-04-11 20:40:00,
2013-04-11 16:45:00,87.9,71.3,29.81,South,173,9.0,12.0,58,0.00,,,0.00,Wunderground v.1.15,2013-04-11 20:45:00,
2013-04-11 16:50:00,88.1,72.0,29.81,SE,142,10.0,10.0,59,0.00,,,0.00,Wunderground v.1.15,2013-04-11 20:50:00,
2013-04-11 16:55:00,87.5,70.4,29.81,SSE,161,10.0,10.0,57,0.00,,,0.00,Wunderground v.1.15,2013-04-11 20:55:00,
2013-04-11 17:00:00,87.1,70.0,29.81,SSW,194,10.0,10.0,57,0.00,,,0.00,Wunderground v.1.15,2013-04-11 21:00:00,
2013-04-11 17:06:00,87.3,70.2,29.81,SSE,160,9.0,10.0,57,0.00,,,0.00,Wunderground v.1.15,2013-04-11 21:06:00,
2013-04-11 17:15:00,87.3,70.7,29.81,SSE,156,9.0,9.0,58,0.00,,,0.00,Wunderground v.1.15,2013-04-11 21:15:00,
2013-04-11 17:20:00,87.4,71.3,29.81,SSE,162,10.0,10.0,59,0.00,,,0.00,Wunderground v.1.15,2013-04-11 21:20:00,
2013-04-11 17:25:00,87.6,71.5,29.80,South,169,10.0,11.0,59,0.00,,,0.00,Wunderground v.1.15,2013-04-11 21:25:00,
2013-04-11 17:30:00,87.4,71.3,29.81,SE,145,10.0,10.0,59,0.00,,,0.00,Wunderground v.1.15,2013-04-11 21:30:00,
2013-04-11 17:35:00,87.1,71.5,29.80,SSE,159,10.0,10.0,60,0.00,,,0.00,Wunderground v.1.15,2013-04-11 21:35:00,
2013-04-11 17:40:00,87.1,71.5,29.80,SSE,153,9.0,9.0,60,0.00,,,0.00,Wunderground v.1.15,2013-04-11 21:40:00,
2013-04-11 17:45:00,86.6,71.5,29.80,SSE,163,10.0,13.0,61,0.00,,,0.00,Wunderground v.1.15,2013-04-11 21:45:00,
2013-04-11 17:50:00,86.1,71.1,29.80,SSE,155,10.0,13.0,61,0.00,,,0.00,Wunderground v.1.15,2013-04-11 21:50:00,
2013-04-11 17:55:00,85.8,71.3,29.80,SSE,163,9.0,13.0,62,0.00,,,0.00,Wunderground v.1.15,2013-04-11 21:55:00,
2013-04-11 18:00:00,85.6,71.6,29.80,SSE,159,8.0,10.0,63,0.00,,,0.00,Wunderground v.1.15,2013-04-11 22:00:00,
2013-04-11 18:05:00,85.6,71.6,29.80,SE,144,8.0,10.0,63,0.00,,,0.00,Wunderground v.1.15,2013-04-11 22:05:00,
2013-04-11 18:10:00,85.5,71.5,29.80,SSE,153,8.0,9.0,63,0.00,,,0.00,Wunderground v.1.15,2013-04-11 22:10:00,
2013-04-11 18:20:00,85.4,71.4,29.80,South,173,9.0,9.0,63,0.00,,,0.00,Wunderground v.1.15,2013-04-11 22:20:00,
2013-04-11 18:30:00,85.9,71.4,29.80,SSE,164,8.0,11.0,62,0.00,,,0.00,Wunderground v.1.15,2013-04-11 22:30:00,
2013-04-11 18:40:00,84.9,70.9,29.80,SSE,153,10.0,10.0,63,0.00,,,0.00,Wunderground v.1.15,2013-04-11 22:40:00,
2013-04-11 18:45:00,84.5,71.0,29.80,SSE,157,9.0,11.0,64,0.00,,,0.00,Wunderground v.1.15,2013-04-11 22:45:00,
2013-04-11 18:50:00,84.1,71.1,29.80,SE,139,10.0,11.0,65,0.00,,,0.00,Wunderground v.1.15,2013-04-11 22:50:00,
2013-04-11 18:55:00,83.9,71.3,29.80,SSE,156,10.0,12.0,66,0.00,,,0.00,Wunderground v.1.15,2013-04-11 22:55:00,
2013-04-11 19:00:00,83.6,71.0,29.80,SE,145,9.0,9.0,66,0.00,,,0.00,Wunderground v.1.15,2013-04-11 23:00:00,
2013-04-11 19:05:00,83.5,70.9,29.80,SE,142,8.0,10.0,66,0.00,,,0.00,Wunderground v.1.15,2013-04-11 23:05:00,
2013-04-11 19:10:00,83.4,71.3,29.80,SSE,163,8.0,8.0,67,0.00,,,0.00,Wunderground v.1.15,2013-04-11 23:10:00,
2013-04-11 19:15:00,83.2,71.5,29.81,SE,142,9.0,12.0,68,0.00,,,0.00,Wunderground v.1.15,2013-04-11 23:15:00,
2013-04-11 19:20:00,81.4,71.9,29.82,South,182,11.0,11.0,73,0.46,,,0.02,Wunderground v.1.15,2013-04-11 23:20:00,
2013-04-11 19:25:00,79.1,70.9,29.82,South,169,10.0,11.0,76,0.38,,,0.04,Wunderground v.1.15,2013-04-11 23:25:00,
2013-04-11 19:30:00,77.5,70.5,29.82,SSE,161,7.0,9.0,79,0.11,,,0.04,Wunderground v.1.15,2013-04-11 23:30:00,
2013-04-11 19:35:00,76.7,70.1,29.82,SSE,160,8.0,13.0,80,0.06,,,0.04,Wunderground v.1.15,2013-04-11 23:35:00,
2013-04-11 19:40:00,76.0,69.7,29.83,SSE,154,8.0,8.0,81,0.04,,,0.04,Wunderground v.1.15,2013-04-11 23:40:00,
2013-04-11 19:45:00,75.3,69.1,29.83,SSE,155,7.0,8.0,81,0.00,,,0.04,Wunderground v.1.15,2013-04-11 23:45:00,
2013-04-11 19:50:00,74.6,68.7,29.83,SSE,157,5.0,5.0,82,0.32,,,0.06,Wunderground v.1.15,2013-04-11 23:50:00,
2013-04-11 19:55:00,74.0,68.5,29.83,SSE,158,2.0,5.0,83,0.14,,,0.07,Wunderground v.1.15,2013-04-11 23:55:00,
2013-04-11 20:00:00,73.7,68.6,29.83,SSE,158,0.0,0.0,84,0.11,,,0.08,Wunderground v.1.15,2013-04-12 00:00:00,
2013-04-11 20:05:00,73.5,68.7,29.82,SSE,158,0.0,0.0,85,0.06,,,0.08,Wunderground v.1.15,2013-04-12 00:05:00,
2013-04-11 20:15:00,73.3,69.2,29.82,SSE,158,0.0,0.0,87,0.00,,,0.08,Wunderground v.1.15,2013-04-12 00:15:00,
2013-04-11 20:20:00,73.2,69.1,29.82,SSE,158,0.0,0.0,87,0.00,,,0.08,Wunderground v.1.15,2013-04-12 00:20:00,
2013-04-11 20:25:00,73.0,68.9,29.82,SSE,158,0.0,0.0,87,0.00,,,0.08,Wunderground v.1.15,2013-04-12 00:25:00,
2013-04-11 20:30:00,72.8,68.7,29.82,SSE,157,0.0,0.0,87,0.00,,,0.08,Wunderground v.1.15,2013-04-12 00:30:00,
2013-04-11 20:40:00,72.7,68.9,29.82,SSE,158,0.0,0.0,88,0.00,,,0.08,Wunderground v.1.15,2013-04-12 00:40:00,
2013-04-11 20:45:00,72.8,69.4,29.81,SSE,158,0.0,0.0,89,0.00,,,0.08,Wunderground v.1.15,2013-04-12 00:45:00,
2013-04-11 20:50:00,72.8,69.4,29.81,SSE,158,0.0,0.0,89,0.00,,,0.08,Wunderground v.1.15,2013-04-12 00:50:00,
2013-04-11 20:55:00,72.7,69.3,29.81,SSE,158,0.0,0.0,89,0.00,,,0.08,Wunderground v.1.15,2013-04-12 00:55:00,
2013-04-11 21:00:00,72.8,69.7,29.81,SSE,157,0.0,0.0,90,0.00,,,0.08,Wunderground v.1.15,2013-04-12 01:00:00,
2013-04-11 21:05:00,73.0,69.9,29.81,SSE,158,0.0,0.0,90,0.00,,,0.08,Wunderground v.1.15,2013-04-12 01:05:00,
2013-04-11 21:10:00,73.1,70.0,29.81,SSE,158,0.0,2.0,90,0.00,,,0.08,Wunderground v.1.15,2013-04-12 01:10:00,
2013-04-11 21:15:00,73.3,70.2,29.81,SSE,158,1.0,3.0,90,0.00,,,0.08,Wunderground v.1.15,2013-04-12 01:15:00,
2013-04-11 21:20:00,73.4,70.6,29.81,SSE,158,2.0,2.0,91,0.00,,,0.08,Wunderground v.1.15,2013-04-12 01:20:00,
2013-04-11 21:25:00,73.4,70.6,29.81,SSE,158,1.0,2.0,91,0.00,,,0.08,Wunderground v.1.15,2013-04-12 01:25:00,
2013-04-11 21:30:00,73.3,70.5,29.81,SSE,158,0.0,0.0,91,0.00,,,0.08,Wunderground v.1.15,2013-04-12 01:30:00,
2013-04-11 21:35:00,73.4,70.6,29.81,SSE,158,0.0,0.0,91,0.00,,,0.08,Wunderground v.1.15,2013-04-12 01:35:00,
2013-04-11 21:40:00,73.5,70.7,29.81,SSE,158,1.0,2.0,91,0.00,,,0.08,Wunderground v.1.15,2013-04-12 01:40:00,
2013-04-11 21:45:00,73.7,70.9,29.81,SSE,158,3.0,5.0,91,0.00,,,0.08,Wunderground v.1.15,2013-04-12 01:45:00,
2013-04-11 21:50:00,73.8,71.0,29.81,SSE,157,4.0,4.0,91,0.00,,,0.08,Wunderground v.1.15,2013-04-12 01:50:00,
2013-04-11 22:00:00,74.2,71.4,29.81,SSE,153,5.0,5.0,91,0.00,,,0.08,Wunderground v.1.15,2013-04-12 02:00:00,
2013-04-11 22:05:00,74.2,71.1,29.81,SSE,148,6.0,6.0,90,0.00,,,0.08,Wunderground v.1.15,2013-04-12 02:05:00,
2013-04-11 22:10:00,74.3,71.2,29.81,SE,144,6.0,7.0,90,0.00,,,0.08,Wunderground v.1.15,2013-04-12 02:10:00,
2013-04-11 22:15:00,74.4,71.3,29.81,SE,144,6.0,7.0,90,0.00,,,0.08,Wunderground v.1.15,2013-04-12 02:15:00,
2013-04-11 22:20:00,74.4,71.3,29.81,SSE,148,5.0,6.0,90,0.00,,,0.08,Wunderground v.1.15,2013-04-12 02:20:00,
2013-04-11 22:25:00,74.4,71.6,29.81,SSE,148,5.0,6.0,91,0.00,,,0.08,Wunderground v.1.15,2013-04-12 02:25:00,
2013-04-11 22:30:00,74.4,71.3,29.81,SSE,148,5.0,5.0,90,0.00,,,0.08,Wunderground v.1.15,2013-04-12 02:30:00,
2013-04-11 22:35:00,74.3,71.5,29.82,SSE,148,5.0,5.0,91,0.00,,,0.08,Wunderground v.1.15,2013-04-12 02:35:00,
2013-04-11 22:40:00,74.4,71.6,29.82,SE,146,5.0,6.0,91,0.00,,,0.08,Wunderground v.1.15,2013-04-12 02:40:00,
2013-04-11 22:45:00,74.4,71.6,29.82,SSE,148,5.0,6.0,91,0.00,,,0.08,Wunderground v.1.15,2013-04-12 02:45:00,
2013-04-11 22:55:00,74.3,71.5,29.84,SE,146,4.0,5.0,91,0.00,,,0.08,Wunderground v.1.15,2013-04-12 02:55:00,
2013-04-11 23:00:00,74.2,71.4,29.85,SE,146,2.0,2.0,91,0.00,,,0.08,Wunderground v.1.15,2013-04-12 03:00:00,
2013-04-11 23:05:00,74.1,71.3,29.85,SSE,147,0.0,2.0,91,0.00,,,0.08,Wunderground v.1.15,2013-04-12 03:05:00,
2013-04-11 23:10:00,73.9,71.1,29.85,SE,146,0.0,0.0,91,0.00,,,0.08,Wunderground v.1.15,2013-04-12 03:10:00,
2013-04-11 23:20:00,73.4,70.6,29.85,SSE,147,0.0,0.0,91,0.00,,,0.08,Wunderground v.1.15,2013-04-12 03:20:00,
2013-04-11 23:25:00,73.3,70.5,29.86,SSE,147,0.0,0.0,91,0.00,,,0.08,Wunderground v.1.15,2013-04-12 03:25:00,
2013-04-11 23:30:00,73.1,70.3,29.86,SSE,147,0.0,0.0,91,0.00,,,0.08,Wunderground v.1.15,2013-04-12 03:30:00,
2013-04-11 23:35:00,72.9,70.1,29.86,SSE,147,0.0,0.0,91,0.00,,,0.08,Wunderground v.1.15,2013-04-12 03:35:00,
2013-04-11 23:40:00,72.6,69.8,29.86,SSE,147,0.0,0.0,91,0.00,,,0.08,Wunderground v.1.15,2013-04-12 03:40:00,
2013-04-11 23:45:00,72.4,69.6,29.86,SSE,147,0.0,0.0,91,0.00,,,0.08,Wunderground v.1.15,2013-04-12 03:45:00,
2013-04-11 23:50:00,72.1,69.3,29.86,SE,146,0.0,0.0,91,0.00,,,0.08,Wunderground v.1.15,2013-04-12 03:50:00,
2013-04-11 23:55:00,72.1,69.3,29.86,SE,146,0.0,0.0,91,0.00,,,0.08,Wunderground v.1.15,2013-04-12 03:55:00,